Latest Weather Observations for Nambour

IDQ60901

Issued at 11:11 am EST Wednesday 13 December 2017 (issued every 10 minutes, with the page automatically refreshed every 10 minutes)

About weather observations | Map of Brisbane area stations | Latest observations for Brisbane area | Other Formats
Station Details ID: 040988 Name: NAMBOUR DAFF - HILLSIDE Lat: -26.64 Lon: 152.94 Height: 53.24 m
Data from the previous 72 hours. | See also: Recent months at Nambour
Date/Time
EST
Temp
°C
App
Temp
°C
Dew
Point
°C
Rel
Hum
%
Delta-T
°C
Wind Press
QNH
hPa
Press
MSL
hPa
Rain since
9am
mm
Dir  Spd
km/h
Gust
km/h
Spd
kts
Gust
kts
13/11:00am 26.8 27.0 15.8 51 6.7 E 9 22 5 12 1015.6 1015.3 0.0
13/10:30am 26.1 26.2 15.5 52 6.4 ESE 9 17 5 9 1015.7 1015.4 0.0
13/10:00am 26.3 26.0 15.4 51 6.6 ESE 11 20 6 11 1015.8 1015.5 0.0
13/09:30am 26.7 27.1 16.3 53 6.4 E 9 20 5 11 1015.7 1015.4 0.0
13/09:00am 24.7 25.6 16.2 59 5.2 ESE 6 11 3 6 1016.0 1015.7 0.2
13/08:30am 25.2 26.6 17.4 62 4.9 SE 6 11 3 6 1016.1 1015.8 0.2
13/08:00am 24.9 26.4 17.6 64 4.6 ESE 6 11 3 6 1016.0 1015.7 0.2
13/07:30am 24.0 25.3 17.0 65 4.3 SE 6 13 3 7 1015.9 1015.6 0.2
13/07:00am 23.4 25.2 17.4 69 3.7 SE 4 11 2 6 1015.8 1015.5 0.2
13/06:30am 22.0 24.4 18.0 78 2.5 ESE 2 7 1 4 1015.4 1015.1 0.2
13/06:00am 20.0 22.9 18.1 89 1.2 CALM 0 0 0 0 1015.1 1014.8 0.2
13/05:30am 19.1 21.7 17.4 90 1.0 CALM 0 0 0 0 1014.8 1014.5 0.2
13/05:00am 19.0 21.4 17.1 89 1.2 CALM 0 2 0 1 1014.7 1014.4 0.2
13/04:30am 19.1 21.5 16.9 87 1.3 CALM 0 4 0 2 1014.5 1014.2 0.2
13/04:00am 19.4 21.6 16.6 84 1.7 CALM 0 4 0 2 1014.4 1014.1 0.2
13/03:30am 19.8 22.1 16.8 83 1.8 CALM 0 0 0 0 1014.4 1014.1 0.2
13/03:00am 20.1 22.6 17.3 84 1.7 CALM 0 2 0 1 1014.4 1014.1 0.2
13/02:30am 19.9 22.4 17.3 85 1.6 CALM 0 2 0 1 1014.4 1014.1 0.2
13/02:00am 19.6 22.1 17.2 86 1.5 CALM 0 2 0 1 1014.6 1014.3 0.2
13/01:30am 19.5 21.6 17.1 86 1.5 WSW 2 7 1 4 1015.1 1014.8 0.2
13/01:00am 19.4 21.4 17.0 86 1.5 SW 2 6 1 3 1015.4 1015.1 0.2
13/12:30am 19.5 21.9 17.1 86 1.5 CALM 0 2 0 1 1015.7 1015.4 0.2
13/12:00am 19.6 21.8 16.4 82 1.9 CALM 0 0 0 0 1016.2 1015.9 0.2
 
Date/Time
EST
Temp
°C
App
Temp
°C
Dew
Point
°C
Rel
Hum
%
Delta-T
°C
Wind Press
QNH
hPa
Press
MSL
hPa
Rain since
9am
mm
Dir  Spd
km/h
Gust
km/h
Spd
kts
Gust
kts
12/11:30pm 20.0 21.9 16.8 82 1.9 WSW 2 4 1 2 1016.6 1016.3 0.2
12/11:00pm 20.3 22.2 16.7 80 2.2 WSW 2 4 1 2 1016.9 1016.6 0.2
12/10:30pm 20.4 22.3 16.8 80 2.2 SW 2 6 1 3 1017.2 1016.9 0.2
12/10:00pm 20.6 22.5 16.8 79 2.3 SSW 2 7 1 4 1017.2 1016.9 0.2
12/09:30pm 20.6 22.6 17.0 80 2.2 WSW 2 4 1 2 1017.2 1016.9 0.2
12/09:00pm 20.7 23.0 16.7 78 2.4 CALM 0 2 0 1 1017.1 1016.8 0.2
12/08:30pm 21.3 23.7 16.9 76 2.7 CALM 0 2 0 1 1017.1 1016.8 0.2
12/08:00pm 22.0 24.3 16.7 72 3.2 CALM 0 4 0 2 1017.1 1016.8 0.2
12/07:30pm 22.3 24.2 16.8 71 3.4 S 2 7 1 4 1016.9 1016.6 0.2
12/07:00pm 22.8 24.4 16.8 69 3.7 SE 4 9 2 5 1016.8 1016.5 0.2
12/06:30pm 22.9 24.8 16.7 68 3.8 SSE 2 6 1 3 1016.6 1016.3 0.2
12/06:00pm 23.4 24.5 16.7 66 4.1 ESE 6 9 3 5 1016.2 1015.9 0.2
12/05:30pm 23.9 24.8 16.7 64 4.4 ESE 7 17 4 9 1015.9 1015.6 0.2
12/05:00pm 24.6 24.6 16.3 60 5.1 ESE 11 28 6 15 1015.7 1015.4 0.2
12/04:30pm 24.9 25.8 16.6 60 5.1 ESE 7 19 4 10 1015.4 1015.1 0.2
12/04:00pm 25.0 25.7 17.0 61 5.0 ESE 9 20 5 11 1015.3 1015.0 0.2
12/03:30pm 25.0 24.2 16.2 58 5.4 ESE 15 28 8 15 1015.1 1014.8 0.2
12/03:00pm - - - - - ESE 11 19 6 10 1015.2 1014.9 0.2
12/02:30pm - - - - - SE 6 26 3 14 1015.5 1015.2 0.2
12/02:00pm - - - - - ESE 11 22 6 12 1015.7 1015.4 0.2
12/01:30pm - - - - - SE 7 19 4 10 1015.8 1015.5 0.2
12/01:00pm - - - - - ESE 11 24 6 13 1016.2 1015.9 0.2
12/12:30pm - - - - - SSE 7 17 4 9 1016.1 1015.8 0.2
12/12:00pm - - - - - SE 2 7 1 4 1016.6 1016.3 0.2
12/11:30am - - - - - ESE 7 17 4 9 1016.7 1016.4 0.2
12/11:00am 24.1 24.7 15.9 60 5.0 ESE 7 17 4 9 1016.9 1016.6 0.2
12/10:30am 24.9 25.5 15.2 54 5.8 ESE 6 17 3 9 1016.8 1016.5 0.2
12/10:00am 24.5 23.9 14.6 54 5.9 ESE 11 20 6 11 1017.0 1016.7 0.2
12/09:30am 24.6 25.0 15.2 55 5.7 ESE 7 13 4 7 1016.9 1016.6 0.0
12/09:00am 24.4 24.9 15.1 56 5.6 E 6 9 3 5 1016.9 1016.6 3.8
12/08:30am 24.1 24.6 15.1 57 5.4 SSE 6 15 3 8 1016.9 1016.6 3.8
12/08:00am 23.4 24.1 15.5 61 4.7 SW 6 17 3 9 1016.9 1016.6 3.8
12/07:30am 22.9 23.1 14.7 60 4.9 SSE 7 17 4 9 1016.8 1016.5 3.8
12/07:00am 22.7 23.1 14.8 61 4.7 SE 6 9 3 5 1016.7 1016.4 3.8
12/06:30am 21.6 22.2 14.3 63 4.3 WSW 4 9 2 5 1016.5 1016.2 3.8
12/06:00am 20.6 21.2 14.3 67 3.7 WSW 4 9 2 5 1016.3 1016.0 3.8
12/05:30am 19.5 20.5 14.3 72 3.0 WSW 2 7 1 4 1016.1 1015.8 3.8
12/05:00am 19.1 19.8 14.4 74 2.7 SW 4 9 2 5 1015.8 1015.5 3.8
12/04:30am 19.1 20.2 14.6 75 2.6 WSW 2 7 1 4 1015.7 1015.4 3.8
12/04:00am 18.8 19.4 14.3 75 2.6 SW 4 7 2 4 1015.4 1015.1 3.8
12/03:30am 19.2 20.2 14.2 73 2.9 W 2 4 1 2 1015.6 1015.3 3.8
12/03:00am 19.4 20.5 14.6 74 2.8 SSW 2 7 1 4 1015.4 1015.1 3.8
12/02:30am 19.3 20.4 14.6 74 2.7 NNW 2 6 1 3 1015.4 1015.1 3.8
12/02:00am 19.7 20.5 14.9 74 2.8 WSW 4 9 2 5 1015.8 1015.5 3.8
12/01:30am 19.7 21.0 15.1 75 2.7 NW 2 4 1 2 1015.9 1015.6 3.8
12/01:00am 20.0 21.4 15.4 75 2.7 WSW 2 4 1 2 1016.1 1015.8 3.8
12/12:30am 20.2 21.7 15.8 76 2.6 W 2 4 1 2 1016.5 1016.2 3.8
12/12:00am 20.6 22.2 16.0 75 2.8 W 2 6 1 3 1016.7 1016.4 3.8
 
Date/Time
EST
Temp
°C
App
Temp
°C
Dew
Point
°C
Rel
Hum
%
Delta-T
°C
Wind Press
QNH
hPa
Press
MSL
hPa
Rain since
9am
mm
Dir  Spd
km/h
Gust
km/h
Spd
kts
Gust
kts
11/11:30pm 21.1 22.8 16.3 74 2.9 ENE 2 9 1 5 1017.0 1016.7 3.8
11/11:00pm 21.3 23.2 16.7 75 2.8 E 2 4 1 2 1017.2 1016.9 3.8
11/10:30pm 21.4 23.4 17.0 76 2.7 SE 2 4 1 2 1017.5 1017.2 3.8
11/10:00pm - - - - - WSW 2 4 1 2 1017.6 1017.3 3.8
11/09:30pm - - - - - CALM 0 4 0 2 1017.4 1017.1 3.8
11/09:00pm - - - - - WSW 2 4 1 2 1017.2 1016.9 3.8
11/08:30pm - - - - - CALM 0 4 0 2 1016.9 1016.6 3.8
11/08:00pm - - - - - WSW 2 6 1 3 1016.7 1016.4 3.8
11/07:30pm - - - - - CALM 0 4 0 2 1016.6 1016.3 3.8
11/07:00pm 22.5 24.8 17.6 74 3.0 SW 2 4 1 2 1016.5 1016.2 3.8
11/06:30pm 23.0 24.8 17.5 71 3.4 SE 4 11 2 6 1016.2 1015.9 3.8
11/06:00pm 23.2 25.1 17.7 71 3.4 SE 4 9 2 5 1015.9 1015.6 3.8
11/05:30pm 23.3 24.8 17.5 70 3.6 SE 6 11 3 6 1015.7 1015.4 3.8
11/05:00pm 23.7 25.1 17.7 69 3.7 ESE 7 17 4 9 1015.4 1015.1 3.8
11/04:30pm 24.8 25.2 17.3 63 4.7 E 11 20 6 11 1015.0 1014.7 3.8
11/04:00pm 24.7 25.1 17.2 63 4.7 ESE 11 19 6 10 1015.1 1014.8 3.8
11/03:30pm 25.2 25.9 17.1 60 5.0 ESE 9 20 5 11 1014.9 1014.6 3.8
11/03:00pm 24.9 26.1 17.4 63 4.7 SE 7 20 4 11 1015.2 1014.9 3.8
11/02:30pm 25.5 27.7 19.2 68 4.0 SSE 6 17 3 9 1015.4 1015.1 3.8
11/02:00pm 24.4 26.7 19.5 74 3.1 SSE 6 15 3 8 1015.8 1015.5 3.8
11/01:30pm 22.9 24.9 19.1 79 2.4 SSW 7 19 4 10 1016.1 1015.8 3.8
11/01:00pm 22.9 25.9 20.1 84 1.8 SSW 4 9 2 5 1016.2 1015.9 2.6
11/12:30pm 22.2 24.3 19.4 84 1.8 WSW 7 11 4 6 1016.7 1016.4 1.8
11/12:00pm 24.5 25.8 17.5 65 4.4 ESE 7 17 4 9 1017.0 1016.7 0.4
11/11:30am 24.4 24.9 16.6 61 4.8 E 9 19 5 10 1017.2 1016.9 0.0
11/11:00am 24.3 25.8 18.0 68 4.0 SW 7 13 4 7 1017.5 1017.2 0.0
11/10:30am 25.7 28.1 19.6 69 3.9 ESE 6 11 3 6 1017.6 1017.3 0.0
11/10:00am 23.9 24.8 17.6 68 3.9 ESE 9 17 5 9 1017.7 1017.4 0.0
11/09:30am 24.6 25.4 17.3 64 4.5 SE 9 17 5 9 1017.6 1017.3 0.0
11/09:00am 24.9 26.6 18.1 66 4.3 ENE 6 15 3 8 1017.7 1017.4 0.0
11/08:30am 22.7 24.5 17.4 72 3.3 E 4 9 2 5 1018.0 1017.7 0.0
11/08:00am 22.8 24.0 16.8 69 3.7 SE 6 15 3 8 1018.1 1017.9 0.0
11/07:30am 23.4 24.6 16.9 67 4.0 SSE 6 17 3 9 1017.8 1017.5 0.0
11/07:00am 22.9 24.2 17.1 70 3.6 SSW 6 9 3 5 1017.8 1017.5 0.0
11/06:30am 22.1 23.6 16.6 71 3.4 SSW 4 9 2 5 1017.7 1017.4 0.0
11/06:00am 21.4 23.0 16.8 75 2.8 SW 4 9 2 5 1017.4 1017.1 0.0
11/05:30am 20.4 22.2 16.4 78 2.4 WSW 2 6 1 3 1017.1 1016.8 0.0
11/05:00am 20.3 21.7 16.3 78 2.4 SSW 4 11 2 6 1016.7 1016.4 0.0
11/04:30am 20.1 21.5 16.3 79 2.3 SW 4 9 2 5 1016.7 1016.4 0.0
11/04:00am 19.8 21.5 16.3 80 2.1 SW 2 7 1 4 1016.5 1016.2 0.0
11/03:30am 19.9 21.6 16.3 80 2.2 S 2 4 1 2 1016.4 1016.1 0.0
11/03:00am 19.9 21.6 16.3 80 2.2 NW 2 6 1 3 1016.5 1016.2 0.0
11/02:30am 20.1 21.9 16.5 80 2.2 SW 2 6 1 3 1016.6 1016.3 0.0
11/02:00am 20.2 22.4 16.4 79 2.3 CALM 0 0 0 0 1016.8 1016.5 0.0
11/01:30am 20.4 22.2 16.4 78 2.4 SW 2 6 1 3 1017.0 1016.7 0.0
11/01:00am 20.4 21.4 16.4 78 2.4 WSW 6 11 3 6 1017.3 1017.0 0.0
11/12:30am 20.8 22.3 16.6 77 2.5 NW 4 6 2 3 1017.6 1017.3 0.0
11/12:00am 21.0 22.9 16.8 77 2.6 NW 2 6 1 3 1018.2 1018.0 0.0
 
Date/Time
EST
Temp
°C
App
Temp
°C
Dew
Point
°C
Rel
Hum
%
Delta-T
°C
Wind Press
QNH
hPa
Press
MSL
hPa
Rain since
9am
mm
Dir  Spd
km/h
Gust
km/h
Spd
kts
Gust
kts
10/11:30pm 20.8 22.7 16.6 77 2.5 W 2 6 1 3 1018.5 1018.3 0.0
10/11:00pm 21.1 23.0 16.7 76 2.7 NNW 2 7 1 4 1019.0 1018.8 0.0
10/10:30pm 20.8 23.0 16.6 77 2.5 CALM 0 4 0 2 1019.2 1019.0 0.0
10/10:00pm 21.3 23.6 16.7 75 2.8 CALM 0 4 0 2 1019.2 1019.0 0.0
10/09:30pm 21.4 23.3 16.6 74 2.9 E 2 6 1 3 1019.2 1019.0 0.0
10/09:00pm 21.8 23.7 16.7 73 3.1 SE 2 7 1 4 1019.3 1019.1 0.0
10/08:30pm 22.0 24.0 16.9 73 3.1 NNE 2 6 1 3 1019.1 1018.9 0.0
10/08:00pm 22.2 24.3 17.1 73 3.1 NW 2 6 1 3 1019.0 1018.8 0.0
10/07:30pm 22.6 24.7 17.3 72 3.3 NNE 2 7 1 4 1018.6 1018.4 0.0
10/07:00pm 22.9 24.7 17.4 71 3.4 ESE 4 9 2 5 1018.4 1018.2 0.0
10/06:30pm 23.2 24.9 17.2 69 3.7 ESE 4 9 2 5 1018.1 1017.9 0.0
10/06:00pm 23.6 24.6 16.9 66 4.1 ESE 7 15 4 8 1017.9 1017.6 0.0
10/05:30pm 24.2 25.1 16.5 62 4.7 ESE 7 19 4 10 1017.6 1017.3 0.0
10/05:00pm 24.4 25.4 16.4 61 4.9 ESE 6 13 3 7 1017.3 1017.0 0.0
10/04:30pm 24.5 25.2 16.2 60 5.1 ESE 7 13 4 7 1017.3 1017.0 0.0
10/04:00pm 24.7 25.5 16.4 60 5.1 SE 7 11 4 6 1017.2 1016.9 0.0
10/03:30pm 25.5 26.3 16.4 57 5.6 ESE 7 17 4 9 1017.2 1016.9 0.0
10/03:00pm 27.0 27.9 16.6 53 6.4 E 7 15 4 8 1017.2 1016.9 0.0
10/02:30pm 25.7 25.9 15.7 54 6.1 ESE 9 15 5 8 1017.5 1017.2 0.0
10/02:00pm 25.7 25.1 15.7 54 6.1 ESE 13 30 7 16 1017.7 1017.4 0.0
10/01:30pm 26.3 26.8 16.5 54 6.1 ESE 9 22 5 12 1017.8 1017.5 0.0
10/01:00pm 25.3 25.9 16.7 59 5.3 ESE 9 22 5 12 1018.1 1017.9 0.0
10/12:30pm 26.3 26.5 15.7 52 6.5 ESE 9 26 5 14 1018.3 1018.1 0.0
10/12:00pm 26.6 27.1 16.5 54 6.2 SE 9 17 5 9 1018.3 1018.1 0.0
10/11:30am 25.5 25.9 16.4 57 5.6 ESE 9 17 5 9 1018.7 1018.5 0.0

Latest Capital City Observations: Canberra | Sydney | Melbourne | Brisbane | Adelaide | Perth | Hobart | Darwin

Other Formats:

Comma delimited format used in spreadsheet applications
http://www.bom.gov.au/fwo/IDQ60901/IDQ60901.95572.axf

JavaScript Object Notation format (JSON) in row-major order
http://www.bom.gov.au/fwo/IDQ60901/IDQ60901.95572.json